KASW

Warsaw Municipal Airport

Warsaw, Indiana, USA
METAR KASW 170215Z AUTO 00000KT 10SM CLR 00/M03 A3006 RMK AO2
Observed Flight Rules
Dec-17 @ 02:15 UTC (11 minutes ago) Visual Flight Rules
Wind Visibility Clouds
Calm 10 miles
  • Clear skies
Temperatures Readings
Current 0°C / 32°F
Dewpoint -3°C / 27°F
Humidity 80%
Altimeter 30.06" Hg
Pressure 1018 hPa
Elevation 259
METAR KASW 170215Z AUTO 00000KT 10SM CLR 00/M03 A3006 RMK AO2
Observed Flight Rules
Dec-17 @ 02:15 UTC
(11 minutes ago)
VFR
Wind Visibility
Calm 10 miles
Clouds
  • Clear skies
Temperature Dewpoint
0°C / 32°F -3°C / 27°F
Humidity Altimeter Pressure
80% 30.06" Hg 1018 hPa